createdAt,value
2022-07-29T00:01:43.419Z,1.50
2022-07-29T00:04:11.325Z,1.58
2022-07-29T00:06:39.390Z,1.67
2022-07-29T00:09:07.150Z,1.35
2022-07-29T00:11:36.355Z,1.48
2022-07-29T00:14:04.135Z,1.60
2022-07-29T00:16:31.936Z,1.45
2022-07-29T00:19:02.327Z,1.33
2022-07-29T00:21:30.407Z,1.50
2022-07-29T00:23:58.411Z,1.67
2022-07-29T00:26:28.747Z,1.35
2022-07-29T00:29:23.701Z,2.42
2022-07-29T00:31:45.717Z,1.55
2022-07-29T00:34:27.526Z,1.45
2022-07-29T00:36:55.325Z,1.42
2022-07-29T00:39:23.181Z,1.50
2022-07-29T00:41:50.969Z,1.40
2022-07-29T00:44:20.392Z,1.42
2022-07-29T00:46:48.296Z,1.30
2022-07-29T00:49:16.436Z,1.30
2022-07-29T00:51:44.530Z,1.83
2022-07-29T00:54:12.396Z,1.17
2022-07-29T00:56:40.647Z,1.25
2022-07-29T00:59:08.726Z,1.10
2022-07-29T01:01:37.989Z,1.40
2022-07-29T01:04:07.692Z,1.65
2022-07-29T01:06:36.353Z,1.50
2022-07-29T01:09:04.506Z,2.00
2022-07-29T01:11:32.462Z,1.55
2022-07-29T01:14:00.531Z,1.48
2022-07-29T01:16:33.230Z,1.30
2022-07-29T01:19:08.214Z,1.40
2022-07-29T01:21:49.826Z,1.60
2022-07-29T01:24:29.735Z,1.33
2022-07-29T01:26:59.437Z,1.40
2022-07-29T01:29:38.811Z,1.50
2022-07-29T01:32:20.319Z,1.35
2022-07-29T01:34:58.364Z,1.83
2022-07-29T01:37:28.937Z,1.48
2022-07-29T01:39:58.638Z,1.20
2022-07-29T01:42:29.974Z,1.92
2022-07-29T01:45:01.459Z,1.52
2022-07-29T01:47:33.565Z,2.08
2022-07-29T01:50:07.208Z,1.77
2022-07-29T01:52:36.368Z,2.00
2022-07-29T01:55:08.672Z,1.50
2022-07-29T01:57:37.786Z,1.83
2022-07-29T02:00:07.973Z,2.28
2022-07-29T02:02:37.242Z,1.80
2022-07-29T02:05:06.169Z,1.60
2022-07-29T02:07:35.366Z,1.42
2022-07-29T02:10:04.119Z,1.58
2022-07-29T02:12:33.955Z,1.77
2022-07-29T02:15:02.749Z,1.73
2022-07-29T02:17:34.799Z,1.58
2022-07-29T02:20:07.211Z,2.00
2022-07-29T02:22:35.746Z,1.80
2022-07-29T02:25:03.983Z,2.15
2022-07-29T02:27:32.275Z,1.52
2022-07-29T02:30:01.231Z,1.80
2022-07-29T02:32:30.148Z,1.70
2022-07-29T02:35:00.274Z,2.22
2022-07-29T02:37:28.997Z,1.45
2022-07-29T02:39:57.082Z,1.70
2022-07-29T02:42:26.315Z,2.13
2022-07-29T02:44:54.433Z,1.85
2022-07-29T02:47:23.760Z,1.77
2022-07-29T02:49:55.644Z,1.40
2022-07-29T02:52:26.699Z,2.05
2022-07-29T02:54:57.134Z,1.60
2022-07-29T02:57:30.204Z,1.90
2022-07-29T03:02:27.634Z,1.52
2022-07-29T03:04:55.995Z,1.40
2022-07-29T03:07:27.643Z,1.90
2022-07-29T03:09:56.084Z,1.85
2022-07-29T03:12:24.173Z,1.58
2022-07-29T03:14:52.213Z,1.40
2022-07-29T03:17:20.159Z,1.65
2022-07-29T03:19:48.514Z,1.88
2022-07-29T03:22:16.346Z,1.70
2022-07-29T03:24:48.320Z,1.38
2022-07-29T03:27:16.396Z,1.73
2022-07-29T03:29:49.911Z,1.50
2022-07-29T03:32:23.702Z,1.42
2022-07-29T03:34:52.092Z,1.50
2022-07-29T03:37:19.882Z,2.08
2022-07-29T03:39:49.259Z,1.50
2022-07-29T03:42:18.194Z,1.65
2022-07-29T03:44:48.177Z,1.70
2022-07-29T03:47:16.985Z,1.95
2022-07-29T03:49:46.476Z,1.55
2022-07-29T03:52:14.866Z,2.22
2022-07-29T03:54:42.691Z,2.03
2022-07-29T03:57:13.087Z,1.63
2022-07-29T03:59:41.922Z,1.63
2022-07-29T04:02:11.478Z,1.88
2022-07-29T04:04:39.324Z,1.60
2022-07-29T04:07:07.296Z,1.73
2022-07-29T04:09:35.041Z,1.85
2022-07-29T04:12:04.255Z,1.45
2022-07-29T04:14:34.885Z,1.77
2022-07-29T04:17:03.031Z,1.67
2022-07-29T04:19:31.092Z,2.10
2022-07-29T04:21:59.089Z,3.05
2022-07-29T04:24:27.079Z,2.08
2022-07-29T04:26:55.295Z,3.00
2022-07-29T04:29:23.254Z,1.73
2022-07-29T04:31:52.561Z,1.90
2022-07-29T04:34:21.244Z,1.70
2022-07-29T04:36:49.204Z,1.85
2022-07-29T04:39:23.046Z,2.47
2022-07-29T04:41:52.573Z,1.90
2022-07-29T04:44:22.752Z,2.08
2022-07-29T04:46:58.612Z,2.10
2022-07-29T04:49:26.749Z,1.75
2022-07-29T04:51:54.601Z,1.80
2022-07-29T04:54:22.719Z,2.10
2022-07-29T04:56:50.523Z,1.95
2022-07-29T04:59:18.314Z,2.03
2022-07-29T05:01:46.381Z,1.80
2022-07-29T05:04:16.119Z,1.77
2022-07-29T05:06:46.289Z,2.03
2022-07-29T05:09:14.061Z,1.83
2022-07-29T05:11:42.131Z,2.25
2022-07-29T05:14:09.901Z,1.98
2022-07-29T05:16:37.728Z,1.55
2022-07-29T05:19:09.624Z,1.77
2022-07-29T05:21:41.313Z,1.85
2022-07-29T05:24:09.752Z,1.70
2022-07-29T05:26:37.524Z,1.70
2022-07-29T05:29:07.781Z,1.70
2022-07-29T05:31:55.520Z,1.90
2022-07-29T05:34:23.475Z,2.15
2022-07-29T05:36:52.890Z,2.22
2022-07-29T05:39:47.456Z,2.40
2022-07-29T05:42:12.236Z,2.10
2022-07-29T05:44:40.288Z,2.33
2022-07-29T05:47:08.361Z,1.70
2022-07-29T05:49:36.520Z,1.42
2022-07-29T05:52:06.092Z,2.20
2022-07-29T05:54:36.647Z,1.95
2022-07-29T05:57:10.812Z,2.13
2022-07-29T05:59:39.121Z,2.17
2022-07-29T06:02:07.009Z,2.10
2022-07-29T06:04:34.949Z,3.35
2022-07-29T06:07:02.958Z,1.83
2022-07-29T06:09:32.171Z,1.77
2022-07-29T06:12:00.293Z,2.00
2022-07-29T06:14:29.262Z,1.70
2022-07-29T06:16:57.057Z,1.92
2022-07-29T06:19:28.205Z,1.55
2022-07-29T06:21:56.005Z,1.80
2022-07-29T06:24:23.892Z,2.08
2022-07-29T06:26:53.119Z,2.42
2022-07-29T06:29:21.185Z,2.00
2022-07-29T06:31:48.986Z,2.03
2022-07-29T06:34:17.461Z,1.92
2022-07-29T06:36:46.015Z,2.20
2022-07-29T06:39:14.048Z,2.17
2022-07-29T06:41:42.133Z,2.22
2022-07-29T06:44:14.553Z,1.30
2022-07-29T06:46:42.881Z,1.65
2022-07-29T06:49:11.032Z,1.63
2022-07-29T06:51:39.323Z,1.67
2022-07-29T06:54:07.140Z,1.88
2022-07-29T06:56:39.407Z,1.88
2022-07-29T07:01:37.636Z,1.63
2022-07-29T07:04:05.726Z,1.90
2022-07-29T07:06:33.567Z,1.80
2022-07-29T07:09:01.339Z,2.35
2022-07-29T07:11:29.266Z,1.90
2022-07-29T07:14:02.224Z,2.13
2022-07-29T07:16:30.934Z,2.00
2022-07-29T07:19:00.203Z,2.17
2022-07-29T07:21:30.221Z,1.70
2022-07-29T07:23:58.745Z,1.75
2022-07-29T07:26:26.620Z,1.92
2022-07-29T07:28:54.553Z,1.80
2022-07-29T07:31:22.522Z,1.92
2022-07-29T07:33:50.392Z,2.03
2022-07-29T07:36:19.612Z,2.20
2022-07-29T07:38:50.281Z,2.20
2022-07-29T07:41:18.139Z,1.90
2022-07-29T07:43:46.400Z,2.25
2022-07-29T07:46:14.434Z,1.95
2022-07-29T07:48:42.478Z,2.22
2022-07-29T07:51:10.288Z,2.60
2022-07-29T07:53:39.382Z,3.30
2022-07-29T07:56:10.877Z,2.33
2022-07-29T07:58:39.629Z,2.10
2022-07-29T08:01:07.553Z,2.70
2022-07-29T08:03:35.490Z,2.08
2022-07-29T08:06:03.343Z,2.70
2022-07-29T08:08:31.195Z,2.65
2022-07-29T08:11:06.893Z,2.78
2022-07-29T08:13:37.689Z,2.63
2022-07-29T08:16:13.226Z,2.90
2022-07-29T08:18:42.226Z,2.58
2022-07-29T08:21:10.024Z,3.22
2022-07-29T08:23:51.481Z,2.80
2022-07-29T08:26:24.619Z,3.08
2022-07-29T08:28:52.414Z,3.08
2022-07-29T08:31:20.273Z,2.67
2022-07-29T08:33:48.300Z,2.30
2022-07-29T08:36:16.138Z,3.22
2022-07-29T08:38:44.232Z,2.88
2022-07-29T08:41:12.056Z,2.33
2022-07-29T08:43:42.915Z,2.92
2022-07-29T08:46:11.109Z,2.22
2022-07-29T08:48:39.508Z,2.35
2022-07-29T08:51:08.834Z,2.58
2022-07-29T08:53:39.057Z,2.85
2022-07-29T08:56:07.405Z,2.47
2022-07-29T08:58:36.797Z,2.33
2022-07-29T09:01:12.333Z,2.55
2022-07-29T09:03:41.930Z,2.35
2022-07-29T09:06:10.031Z,2.67
2022-07-29T09:08:37.810Z,2.80
2022-07-29T09:11:05.938Z,2.80
2022-07-29T09:13:34.194Z,2.72
2022-07-29T09:16:08.569Z,2.80
2022-07-29T09:18:39.153Z,2.20
2022-07-29T09:21:25.435Z,2.20
2022-07-29T09:24:07.856Z,3.17
2022-07-29T09:26:37.137Z,2.63
2022-07-29T09:29:10.816Z,2.95
2022-07-29T09:31:40.052Z,3.78
2022-07-29T09:34:09.686Z,3.20
2022-07-29T09:36:41.171Z,3.33
2022-07-29T09:39:09.042Z,3.40
2022-07-29T09:41:46.298Z,3.40
2022-07-29T09:44:14.369Z,3.50
2022-07-29T09:46:43.043Z,3.00
2022-07-29T09:49:13.787Z,3.40
2022-07-29T09:51:42.443Z,4.18
2022-07-29T09:54:27.037Z,3.78
2022-07-29T09:56:55.498Z,3.58
2022-07-29T09:59:27.473Z,4.10
2022-07-29T10:01:55.987Z,2.95
2022-07-29T10:04:25.388Z,3.78
2022-07-29T10:07:04.410Z,2.28
2022-07-29T10:09:33.376Z,3.05
2022-07-29T10:12:04.885Z,3.20
2022-07-29T10:14:33.149Z,2.83
2022-07-29T10:17:01.089Z,3.13
2022-07-29T10:19:30.645Z,2.85
2022-07-29T10:21:59.159Z,3.17
2022-07-29T10:24:33.535Z,3.35
2022-07-29T10:27:02.078Z,2.70
2022-07-29T10:29:32.336Z,3.10
2022-07-29T10:32:09.846Z,3.00
2022-07-29T10:34:50.415Z,3.33
2022-07-29T10:37:21.964Z,3.95
2022-07-29T10:39:57.015Z,3.97
2022-07-29T10:42:33.642Z,3.97
2022-07-29T10:45:04.392Z,3.85
2022-07-29T10:47:32.735Z,3.85
2022-07-29T10:50:07.500Z,3.88
2022-07-29T10:52:53.580Z,3.60
2022-07-29T10:55:39.286Z,3.88
2022-07-29T10:58:14.802Z,3.42
2022-07-29T11:00:42.761Z,4.25
2022-07-29T11:03:28.393Z,3.88
2022-07-29T11:05:59.538Z,4.10
2022-07-29T11:08:28.355Z,4.28
2022-07-29T11:11:17.429Z,3.95
2022-07-29T11:13:55.946Z,4.38
2022-07-29T11:16:25.609Z,3.85
2022-07-29T11:19:13.185Z,4.15
2022-07-29T11:21:49.085Z,4.63
2022-07-29T11:24:28.920Z,3.92
2022-07-29T11:27:13.880Z,3.90
2022-07-29T11:29:43.185Z,4.03
2022-07-29T11:32:18.095Z,4.32
2022-07-29T11:34:51.798Z,4.32
2022-07-29T11:37:28.149Z,4.38
2022-07-29T11:40:13.188Z,4.13
2022-07-29T11:42:42.126Z,4.03
2022-07-29T11:45:43.712Z,4.53
2022-07-29T11:48:29.894Z,4.82
2022-07-29T11:50:50.663Z,3.80
2022-07-29T11:53:20.857Z,3.38
2022-07-29T11:55:51.609Z,4.00
2022-07-29T11:58:24.873Z,3.55
2022-07-29T12:00:55.823Z,3.42
2022-07-29T12:03:35.093Z,3.00
2022-07-29T12:06:04.445Z,3.47
2022-07-29T12:08:42.007Z,3.60
2022-07-29T12:11:16.833Z,3.40
2022-07-29T12:13:44.662Z,3.90
2022-07-29T12:16:14.787Z,3.30
2022-07-29T12:18:44.094Z,3.17
2022-07-29T12:21:12.442Z,3.03
2022-07-29T12:23:53.820Z,2.65
2022-07-29T12:26:25.823Z,3.47
2022-07-29T12:28:54.757Z,3.80
2022-07-29T12:31:41.832Z,3.53
2022-07-29T12:34:12.290Z,2.90
2022-07-29T12:36:40.401Z,3.00
2022-07-29T12:39:10.051Z,2.83
2022-07-29T12:41:38.055Z,3.17
2022-07-29T12:44:06.336Z,3.65
2022-07-29T12:46:34.200Z,3.60
2022-07-29T12:49:04.121Z,3.05
2022-07-29T12:51:33.144Z,2.60
2022-07-29T12:54:04.885Z,3.08
2022-07-29T12:56:42.662Z,2.53
2022-07-29T12:59:15.590Z,2.85
2022-07-29T13:01:43.989Z,3.22
2022-07-29T13:04:12.259Z,2.75
2022-07-29T13:06:41.193Z,2.83
2022-07-29T13:09:13.060Z,2.78
2022-07-29T13:11:48.185Z,3.00
2022-07-29T13:14:31.329Z,2.35
2022-07-29T13:17:03.247Z,3.13
2022-07-29T13:19:35.478Z,2.47
2022-07-29T13:22:03.265Z,2.50
2022-07-29T13:24:31.467Z,2.85
2022-07-29T13:27:01.469Z,2.95
2022-07-29T13:29:33.642Z,2.72
2022-07-29T13:32:01.661Z,3.63
2022-07-29T13:34:29.512Z,2.88
2022-07-29T13:36:57.574Z,2.83
2022-07-29T13:39:25.319Z,3.40
2022-07-29T13:41:53.415Z,4.07
2022-07-29T13:44:22.511Z,3.45
2022-07-29T13:46:51.243Z,3.30
2022-07-29T13:49:19.045Z,3.40
2022-07-29T13:51:47.047Z,3.13
2022-07-29T13:54:14.855Z,3.53
2022-07-29T13:56:42.893Z,3.03
2022-07-29T13:59:10.657Z,3.10
2022-07-29T14:01:42.758Z,3.25
2022-07-29T14:04:11.267Z,3.45
2022-07-29T14:06:40.481Z,3.70
2022-07-29T14:09:09.575Z,2.90
2022-07-29T14:11:39.485Z,3.25
2022-07-29T14:14:07.243Z,2.78
2022-07-29T14:16:38.077Z,3.58
2022-07-29T14:19:12.173Z,2.72
2022-07-29T14:21:40.230Z,3.05
2022-07-29T14:24:17.845Z,3.05
2022-07-29T14:26:49.932Z,2.80
2022-07-29T14:29:18.102Z,2.88
2022-07-29T14:31:45.908Z,2.53
2022-07-29T14:34:16.374Z,2.58
2022-07-29T14:36:44.601Z,2.53
2022-07-29T14:39:12.443Z,2.42
2022-07-29T14:41:40.185Z,2.50
2022-07-29T14:44:08.145Z,1.90
2022-07-29T14:46:35.906Z,2.05
2022-07-29T14:49:03.787Z,2.03
2022-07-29T14:51:32.934Z,2.28
2022-07-29T14:54:00.878Z,2.55
2022-07-29T14:56:46.738Z,2.25
2022-07-29T14:59:14.871Z,1.55
2022-07-29T15:01:42.967Z,2.45
2022-07-29T15:04:10.702Z,2.42
2022-07-29T15:06:40.216Z,2.17
2022-07-29T15:09:08.215Z,1.70
2022-07-29T15:11:37.029Z,2.22
2022-07-29T15:14:06.984Z,2.10
2022-07-29T15:16:36.856Z,2.38
2022-07-29T15:19:04.744Z,2.90
2022-07-29T15:21:32.564Z,2.22
2022-07-29T15:24:01.714Z,2.00
2022-07-29T15:26:29.511Z,1.90
2022-07-29T15:28:57.522Z,2.35
2022-07-29T15:31:25.652Z,2.05
2022-07-29T15:33:58.107Z,2.03
2022-07-29T15:36:50.897Z,1.88
2022-07-29T15:39:16.760Z,1.73
2022-07-29T15:41:44.492Z,1.85
2022-07-29T15:44:12.570Z,2.13
2022-07-29T15:46:57.922Z,1.90
2022-07-29T15:49:47.243Z,2.05
2022-07-29T15:52:18.896Z,2.35
2022-07-29T15:54:48.129Z,1.80
2022-07-29T15:57:16.156Z,2.05
2022-07-29T15:59:43.905Z,1.98
2022-07-29T16:02:11.727Z,2.13
2022-07-29T16:04:39.738Z,2.10
2022-07-29T16:07:07.736Z,1.75
2022-07-29T16:09:35.536Z,1.70
2022-07-29T16:12:14.851Z,2.50
2022-07-29T16:14:43.895Z,2.00
2022-07-29T16:17:14.987Z,1.75
2022-07-29T16:19:43.069Z,2.08
2022-07-29T16:22:11.144Z,2.08
2022-07-29T16:24:39.158Z,1.75
2022-07-29T16:27:08.248Z,2.13
2022-07-29T16:29:48.080Z,1.70
2022-07-29T16:32:15.809Z,1.90
2022-07-29T16:34:50.380Z,3.08
2022-07-29T16:37:18.230Z,2.13
2022-07-29T16:39:46.326Z,1.90
2022-07-29T16:42:31.072Z,1.98
2022-07-29T16:45:03.479Z,2.35
2022-07-29T16:47:33.002Z,2.08
2022-07-29T16:50:01.314Z,2.17
2022-07-29T16:52:29.442Z,2.30
2022-07-29T16:54:57.196Z,1.90
2022-07-29T16:57:27.340Z,2.38
2022-07-29T16:59:55.302Z,2.50
2022-07-29T17:02:23.442Z,2.40
2022-07-29T17:04:51.365Z,2.67
2022-07-29T17:07:19.168Z,2.15
2022-07-29T17:09:47.263Z,2.03
2022-07-29T17:12:15.035Z,2.90
2022-07-29T17:14:44.140Z,2.45
2022-07-29T17:17:13.618Z,2.60
2022-07-29T17:19:41.759Z,2.65
2022-07-29T17:22:15.567Z,1.75
2022-07-29T17:24:46.717Z,2.38
2022-07-29T17:27:15.304Z,2.83
2022-07-29T17:29:45.107Z,2.53
2022-07-29T17:32:12.912Z,2.40
2022-07-29T17:34:41.909Z,2.28
2022-07-29T17:37:10.776Z,2.25
2022-07-29T17:39:40.713Z,2.75
2022-07-29T17:42:09.380Z,2.65
2022-07-29T17:44:37.446Z,2.28
2022-07-29T17:47:07.827Z,2.75
2022-07-29T17:49:36.352Z,3.08
2022-07-29T17:52:05.832Z,2.40
2022-07-29T17:54:33.665Z,2.45
2022-07-29T17:57:02.041Z,2.45
2022-07-29T17:59:30.032Z,2.53
2022-07-29T18:01:57.897Z,2.50
2022-07-29T18:04:28.813Z,2.60
2022-07-29T18:06:56.912Z,2.40
2022-07-29T18:09:24.933Z,2.47
2022-07-29T18:11:52.769Z,1.88
2022-07-29T18:14:20.620Z,2.85
2022-07-29T18:16:48.484Z,2.13
2022-07-29T18:19:16.683Z,2.20
2022-07-29T18:21:54.445Z,2.67
2022-07-29T18:24:25.833Z,2.88
2022-07-29T18:26:53.936Z,2.42
2022-07-29T18:29:22.068Z,2.72
2022-07-29T18:31:50.084Z,2.17
2022-07-29T18:34:18.005Z,2.53
2022-07-29T18:36:48.559Z,2.10
2022-07-29T18:39:20.632Z,2.35
2022-07-29T18:41:50.303Z,2.63
2022-07-29T18:44:19.303Z,2.05
2022-07-29T18:46:50.291Z,2.20
2022-07-29T18:49:18.323Z,2.78
2022-07-29T18:51:47.618Z,2.20
2022-07-29T18:54:15.733Z,2.45
2022-07-29T18:56:43.539Z,3.00
2022-07-29T18:59:11.541Z,2.40
2022-07-29T19:01:39.748Z,2.40
2022-07-29T19:04:08.433Z,2.60
2022-07-29T19:06:36.296Z,2.35
2022-07-29T19:09:05.519Z,2.70
2022-07-29T19:11:33.595Z,2.80
2022-07-29T19:14:01.380Z,3.05
2022-07-29T19:16:29.327Z,3.08
2022-07-29T19:18:57.506Z,3.10
2022-07-29T19:21:25.698Z,2.67
2022-07-29T19:24:01.696Z,2.97
2022-07-29T19:26:39.273Z,2.78
2022-07-29T19:29:07.141Z,3.25
2022-07-29T19:31:35.267Z,3.10
2022-07-29T19:34:03.147Z,3.42
2022-07-29T19:36:31.437Z,2.83
2022-07-29T19:38:59.999Z,3.25
2022-07-29T19:41:28.142Z,3.58
2022-07-29T19:43:57.630Z,3.22
2022-07-29T19:46:28.735Z,4.00
2022-07-29T19:48:56.921Z,3.50
2022-07-29T19:51:24.755Z,3.40
2022-07-29T19:53:52.772Z,3.30
2022-07-29T19:56:20.620Z,3.17
2022-07-29T19:58:49.072Z,3.72
2022-07-29T20:01:18.359Z,3.03
2022-07-29T20:03:46.621Z,3.38
2022-07-29T20:06:14.441Z,3.35
2022-07-29T20:08:42.617Z,3.67
2022-07-29T20:11:10.374Z,3.75
2022-07-29T20:13:38.189Z,3.17
2022-07-29T20:16:08.427Z,2.80
2022-07-29T20:18:37.567Z,3.25
2022-07-29T20:21:05.372Z,2.88
2022-07-29T20:23:33.649Z,3.15
2022-07-29T20:26:01.835Z,3.08
2022-07-29T20:28:29.974Z,2.75
2022-07-29T20:30:58.027Z,2.92
2022-07-29T20:33:25.841Z,2.88
2022-07-29T20:35:55.214Z,3.30
2022-07-29T20:38:23.020Z,2.95
2022-07-29T20:40:53.282Z,3.10
2022-07-29T20:43:21.070Z,2.63
2022-07-29T20:45:49.258Z,3.28
2022-07-29T20:48:17.091Z,2.95
2022-07-29T20:50:46.812Z,3.10
2022-07-29T20:53:16.881Z,2.60
2022-07-29T20:55:44.672Z,3.13
2022-07-29T20:58:12.428Z,3.25
2022-07-29T21:00:40.217Z,2.78
2022-07-29T21:03:08.018Z,3.50
2022-07-29T21:05:37.514Z,3.10
2022-07-29T21:08:05.809Z,6.53
2022-07-29T21:10:35.182Z,3.97
2022-07-29T21:13:03.258Z,3.65
2022-07-29T21:15:32.610Z,3.90
2022-07-29T21:18:02.957Z,3.53
2022-07-29T21:20:31.118Z,3.28
2022-07-29T21:22:58.886Z,4.10
2022-07-29T21:25:28.342Z,3.53
2022-07-29T21:28:20.254Z,3.85
2022-07-29T21:30:47.982Z,4.10
2022-07-29T21:33:15.816Z,3.40
2022-07-29T21:36:03.462Z,4.10
2022-07-29T21:38:31.728Z,3.70
2022-07-29T21:41:00.016Z,4.13
2022-07-29T21:43:29.237Z,3.72
2022-07-29T21:45:57.135Z,4.20
2022-07-29T21:48:26.620Z,5.15
2022-07-29T21:50:54.890Z,4.03
2022-07-29T21:53:23.143Z,3.75
2022-07-29T21:55:55.319Z,4.32
2022-07-29T21:58:23.741Z,4.55
2022-07-29T22:00:54.090Z,4.90
2022-07-29T22:03:22.006Z,4.43
2022-07-29T22:05:50.005Z,4.20
2022-07-29T22:08:17.753Z,4.18
2022-07-29T22:10:45.559Z,4.45
2022-07-29T22:13:13.372Z,4.50
2022-07-29T22:15:46.845Z,3.95
2022-07-29T22:18:20.515Z,5.00
2022-07-29T22:20:49.699Z,4.30
2022-07-29T22:23:17.536Z,4.40
2022-07-29T22:25:45.547Z,5.30
2022-07-29T22:28:13.674Z,4.18
2022-07-29T22:30:41.503Z,3.97
2022-07-29T22:33:09.325Z,4.53
2022-07-29T22:35:48.642Z,4.57
2022-07-29T22:38:17.170Z,5.18
2022-07-29T22:40:44.940Z,3.95
2022-07-29T22:43:13.256Z,4.85
2022-07-29T22:45:41.079Z,5.43
2022-07-29T22:48:08.947Z,4.55
2022-07-29T22:50:36.885Z,5.68
2022-07-29T22:53:06.009Z,5.22
2022-07-29T22:55:33.916Z,4.95
2022-07-29T22:58:01.689Z,4.15
2022-07-29T23:00:29.469Z,4.20
2022-07-29T23:02:57.615Z,3.97
2022-07-29T23:05:26.119Z,4.18
2022-07-29T23:07:53.949Z,4.60
2022-07-29T23:10:23.504Z,4.68
2022-07-29T23:12:51.268Z,3.97
2022-07-29T23:15:19.206Z,4.35
2022-07-29T23:17:47.662Z,3.92
2022-07-29T23:20:15.422Z,3.97
2022-07-29T23:22:43.541Z,4.38
2022-07-29T23:25:16.348Z,4.30
2022-07-29T23:27:45.681Z,4.75
2022-07-29T23:30:13.550Z,4.35
2022-07-29T23:32:41.643Z,5.00
2022-07-29T23:35:10.008Z,4.40
2022-07-29T23:37:39.061Z,5.05
2022-07-29T23:40:10.942Z,4.82
2022-07-29T23:42:42.178Z,4.68
2022-07-29T23:45:12.467Z,4.53
2022-07-29T23:47:40.230Z,4.18
2022-07-29T23:50:08.989Z,4.43
2022-07-29T23:52:37.015Z,4.88
2022-07-29T23:55:37.132Z,5.18
2022-07-29T23:57:53.005Z,4.28
